The Villages, Florida
Current Conditions -  °F | °C
As of 9:53 PM on Wednesday 22 Oct 2014 (Local Time) from KLEE Reporting Station
Clear Clear  
Wind Chill: 67°   Ceiling: Unl
Heat Index: 67°   Visibility: 10mi
Dew Point: 58°   Wind: 9mph
Humidity: 73%   Direction: 40°NE
Pressure: 30.03"   Gusts: NA
Location:  28.9417°N, 81.9658°W
Report Text: KLEE 230153Z AUTO 04008KT 10SM CLR 19/14 A3003 RMK AO2 SLP167 T01940144
Loading
Personal Weather Stations






























Interactive Weather Map New forecast layout! Learn more

10-Day Weather Forecast

Advertisements
Track Severe Weather on mobile